createdAt,value
2022-08-25T00:01:21.701Z,99294.53
2022-08-25T00:05:29.077Z,99299.13
2022-08-25T00:09:38.624Z,99292.28
2022-08-25T00:13:44.441Z,99302.97
2022-08-25T00:17:52.690Z,99307.41
2022-08-25T00:21:55.297Z,99306.63
2022-08-25T00:25:56.754Z,99296.28
2022-08-25T00:29:58.362Z,99299.84
2022-08-25T00:34:00.801Z,99300.09
2022-08-25T00:38:02.420Z,99302.84
2022-08-25T00:42:04.986Z,99308.19
2022-08-25T00:46:18.120Z,99315.25
2022-08-25T00:50:20.148Z,99310.16
2022-08-25T00:54:28.642Z,99313.75
2022-08-25T00:58:32.128Z,99299.91
2022-08-25T01:02:33.660Z,99307.88
2022-08-25T01:06:38.442Z,99314.19
2022-08-25T01:10:43.537Z,99316.16
2022-08-25T01:14:46.611Z,99311.03
2022-08-25T01:18:56.817Z,99314.59
2022-08-25T01:22:59.837Z,99314.75
2022-08-25T01:27:01.621Z,99315.69
2022-08-25T01:31:03.659Z,99319.34
2022-08-25T01:35:06.025Z,99327.34
2022-08-25T01:39:07.382Z,99325.59
2022-08-25T01:43:15.089Z,99328.25
2022-08-25T01:47:16.769Z,99328.44
2022-08-25T01:51:21.491Z,99325.97
2022-08-25T01:55:23.476Z,99325.19
2022-08-25T01:59:26.999Z,99320.16
2022-08-25T02:03:29.764Z,99322.88
2022-08-25T02:07:34.122Z,99316.03
2022-08-25T02:11:37.901Z,99321.38
2022-08-25T02:15:49.869Z,99319.63
2022-08-25T02:19:51.709Z,99312.72
2022-08-25T02:24:00.717Z,99310.19
2022-08-25T02:28:02.341Z,99303.38
2022-08-25T02:32:04.684Z,99301.81
2022-08-25T02:36:07.691Z,99298.38
2022-08-25T02:40:09.992Z,99303.81
2022-08-25T02:44:17.728Z,99310.16
2022-08-25T02:48:20.833Z,99309.38
2022-08-25T02:52:22.277Z,99311.09
2022-08-25T02:56:31.662Z,99304.09
2022-08-25T03:00:33.231Z,99303.28
2022-08-25T03:04:35.365Z,99300.72
2022-08-25T03:08:38.250Z,99305.13
2022-08-25T03:12:41.759Z,99307.88
2022-08-25T03:16:46.425Z,99314.88
2022-08-25T03:20:48.056Z,99319.22
2022-08-25T03:24:49.513Z,99324.56
2022-08-25T03:28:51.218Z,99322.94
2022-08-25T03:32:59.710Z,99316.84
2022-08-25T03:37:01.302Z,99318.63
2022-08-25T03:41:10.570Z,99315.28
2022-08-25T03:45:16.383Z,99307.44
2022-08-25T03:49:22.873Z,99309.34
2022-08-25T03:53:24.338Z,99293.75
2022-08-25T03:57:25.762Z,99288.66
2022-08-25T04:01:28.049Z,99302.75
2022-08-25T04:05:29.616Z,99299.34
2022-08-25T04:09:36.889Z,99303.72
2022-08-25T04:13:39.181Z,99304.63
2022-08-25T04:17:41.079Z,99294.25
2022-08-25T04:21:49.912Z,99295.22
2022-08-25T04:25:51.500Z,99298.13
2022-08-25T04:29:53.079Z,99298.25
2022-08-25T04:33:54.690Z,99302.56
2022-08-25T04:37:56.746Z,99299.09
2022-08-25T04:42:00.509Z,99299.13
2022-08-25T04:46:12.323Z,99291.31
2022-08-25T04:50:13.733Z,99293.06
2022-08-25T04:54:23.149Z,99279.94
2022-08-25T04:58:24.569Z,99286.00
2022-08-25T05:02:25.990Z,99268.53
2022-08-25T05:06:28.838Z,99263.28
2022-08-25T05:10:37.093Z,99258.91
2022-08-25T05:14:38.885Z,99258.81
2022-08-25T05:18:40.673Z,99256.13
2022-08-25T05:22:46.316Z,99262.06
2022-08-25T05:26:47.902Z,99256.69
2022-08-25T05:30:56.696Z,99254.63
2022-08-25T05:34:58.181Z,99244.63
2022-08-25T05:39:00.140Z,99239.75
2022-08-25T05:43:01.752Z,99245.44
2022-08-25T05:47:03.376Z,99245.72
2022-08-25T05:51:08.146Z,99249.16
2022-08-25T05:55:10.234Z,99243.38
2022-08-25T05:59:11.841Z,99242.19
2022-08-25T06:03:19.839Z,99255.50
2022-08-25T06:07:21.397Z,99252.38
2022-08-25T06:11:22.833Z,99240.44
2022-08-25T06:15:25.545Z,99243.88
2022-08-25T06:19:27.547Z,99237.78
2022-08-25T06:23:48.749Z,99246.72
2022-08-25T06:27:50.788Z,99242.66
2022-08-25T06:31:59.004Z,99234.47
2022-08-25T06:36:01.111Z,99232.94
2022-08-25T06:40:06.295Z,99236.41
2022-08-25T06:44:08.041Z,99245.78
2022-08-25T06:48:16.765Z,99245.22
2022-08-25T06:52:18.254Z,99242.38
2022-08-25T06:56:21.722Z,99235.19
2022-08-25T07:00:31.894Z,99243.25
2022-08-25T07:04:34.832Z,99243.56
2022-08-25T07:08:37.121Z,99249.31
2022-08-25T07:12:39.731Z,99243.41
2022-08-25T07:16:47.217Z,99244.16
2022-08-25T07:20:52.085Z,99238.47
2022-08-25T07:24:54.143Z,99246.44
2022-08-25T07:28:57.005Z,99244.94
2022-08-25T07:32:58.602Z,99238.03
2022-08-25T07:37:00.231Z,99238.28
2022-08-25T07:41:09.825Z,99244.63
2022-08-25T07:45:12.126Z,99246.47
2022-08-25T07:49:17.102Z,99242.28
2022-08-25T07:53:18.856Z,99248.66
2022-08-25T07:57:29.013Z,99242.88
2022-08-25T08:01:30.772Z,99240.47
2022-08-25T08:05:33.421Z,99228.00
2022-08-25T08:09:35.045Z,99226.31
2022-08-25T08:13:41.139Z,99224.81
2022-08-25T08:17:42.990Z,99220.75
2022-08-25T08:21:46.685Z,99219.72
2022-08-25T08:25:48.169Z,99212.19
2022-08-25T08:29:50.109Z,99212.28
2022-08-25T08:33:51.956Z,99216.34
2022-08-25T08:37:54.014Z,99216.72
2022-08-25T08:42:16.876Z,99224.78
2022-08-25T08:46:21.166Z,99212.91
2022-08-25T08:50:47.833Z,99211.97
2022-08-25T08:54:56.974Z,99214.56
2022-08-25T08:59:16.859Z,99209.53
2022-08-25T09:03:34.638Z,99216.91
2022-08-25T09:07:54.832Z,99215.03
2022-08-25T09:12:11.222Z,99207.31
2022-08-25T09:16:55.372Z,99207.84
2022-08-25T09:21:14.782Z,99214.78
2022-08-25T09:25:52.272Z,99210.16
2022-08-25T09:30:12.038Z,99206.50
2022-08-25T09:34:20.281Z,99198.88
2022-08-25T09:38:29.834Z,99198.31
2022-08-25T09:42:57.814Z,99197.63
2022-08-25T09:47:02.625Z,99197.19
2022-08-25T09:51:23.275Z,99195.59
2022-08-25T09:55:30.345Z,99178.53
2022-08-25T09:59:57.405Z,99173.59
2022-08-25T10:04:03.558Z,99164.53
2022-08-25T10:08:24.876Z,99165.94
2022-08-25T10:12:42.970Z,99160.78
2022-08-25T10:16:47.262Z,99159.66
2022-08-25T10:21:07.524Z,99154.00
2022-08-25T10:25:14.508Z,99147.03
2022-08-25T10:29:34.592Z,99149.00
2022-08-25T10:34:04.388Z,99136.56
2022-08-25T10:38:35.282Z,99145.88
2022-08-25T10:42:52.264Z,99127.28
2022-08-25T10:47:22.220Z,99130.88
2022-08-25T10:51:33.613Z,99123.69
2022-08-25T10:56:01.358Z,99118.47
2022-08-25T11:00:31.689Z,99114.41
2022-08-25T11:04:47.175Z,99094.38
2022-08-25T11:08:57.602Z,99086.63
2022-08-25T11:13:05.081Z,99084.44
2022-08-25T11:17:15.985Z,99078.53
2022-08-25T11:21:26.075Z,99065.13
2022-08-25T11:25:36.761Z,99074.22
2022-08-25T11:29:47.930Z,99070.59
2022-08-25T11:33:50.952Z,99057.78
2022-08-25T11:38:10.774Z,99057.13
2022-08-25T11:42:31.923Z,99054.22
2022-08-25T11:46:45.454Z,99051.78
2022-08-25T11:51:04.996Z,99047.00
2022-08-25T11:55:17.066Z,99053.22
2022-08-25T11:59:54.820Z,99048.63
2022-08-25T12:04:29.812Z,99042.22
2022-08-25T12:08:51.274Z,99044.81
2022-08-25T12:12:59.401Z,99041.03
2022-08-25T12:17:20.717Z,99036.16
2022-08-25T12:21:30.699Z,99036.16
2022-08-25T12:25:39.265Z,99032.88
2022-08-25T12:29:58.581Z,99024.88
2022-08-25T12:34:31.355Z,99010.00
2022-08-25T12:38:50.908Z,99025.59
2022-08-25T12:43:02.197Z,99021.78
2022-08-25T12:47:10.988Z,99007.97
2022-08-25T12:51:18.485Z,99022.34
2022-08-25T12:55:21.813Z,99016.00
2022-08-25T12:59:35.028Z,99010.97
2022-08-25T13:03:58.244Z,99004.84
2022-08-25T13:08:26.958Z,99000.53
2022-08-25T13:12:46.778Z,98998.03
2022-08-25T13:17:00.485Z,98996.69
2022-08-25T13:21:16.325Z,98989.81
2022-08-25T13:25:23.134Z,98985.28
2022-08-25T13:29:37.413Z,98982.53
2022-08-25T13:33:57.976Z,98977.84
2022-08-25T13:38:19.546Z,98975.00
2022-08-25T13:42:29.008Z,98965.44
2022-08-25T13:46:31.544Z,98950.34
2022-08-25T13:50:43.013Z,98959.25
2022-08-25T13:54:49.468Z,98950.81
2022-08-25T13:58:58.254Z,98960.28
2022-08-25T14:03:02.144Z,98953.50
2022-08-25T14:07:21.032Z,98940.91
2022-08-25T14:11:46.711Z,98939.25
2022-08-25T14:15:56.164Z,98939.91
2022-08-25T14:19:58.510Z,98943.63
2022-08-25T14:24:07.119Z,98929.97
2022-08-25T14:28:17.013Z,98924.75
2022-08-25T14:32:18.821Z,98928.63
2022-08-25T14:36:20.976Z,98920.50
2022-08-25T14:40:22.606Z,98908.41
2022-08-25T14:44:24.409Z,98919.56
2022-08-25T14:48:39.196Z,98911.47
2022-08-25T14:52:42.041Z,98910.59
2022-08-25T14:56:45.700Z,98913.66
2022-08-25T15:00:48.207Z,98912.97
2022-08-25T15:05:00.070Z,98911.47
2022-08-25T15:09:07.940Z,98914.16
2022-08-25T15:13:16.222Z,98911.97
2022-08-25T15:17:18.405Z,98904.41
2022-08-25T15:21:20.178Z,98905.06
2022-08-25T15:25:22.721Z,98909.78
2022-08-25T15:29:29.792Z,98905.25
2022-08-25T15:33:31.281Z,98911.47
2022-08-25T15:37:32.901Z,98899.50
2022-08-25T15:41:43.109Z,98899.16
2022-08-25T15:45:46.330Z,98885.38
2022-08-25T15:49:48.237Z,98894.59
2022-08-25T15:53:50.320Z,98894.78
2022-08-25T15:57:51.972Z,98903.38
2022-08-25T16:01:54.161Z,98896.31
2022-08-25T16:05:56.149Z,98897.00
2022-08-25T16:09:58.525Z,98892.75
2022-08-25T16:14:07.211Z,98886.47
2022-08-25T16:18:08.992Z,98889.69
2022-08-25T16:22:10.882Z,98884.13
2022-08-25T16:26:13.057Z,98891.25
2022-08-25T16:30:17.456Z,98886.69
2022-08-25T16:34:19.265Z,98891.56
2022-08-25T16:38:21.694Z,98881.53
2022-08-25T16:42:23.198Z,98873.56
2022-08-25T16:46:24.759Z,98867.41
2022-08-25T16:50:30.441Z,98864.09
2022-08-25T16:54:54.529Z,98864.78
2022-08-25T16:58:59.325Z,98867.50
2022-08-25T17:03:04.770Z,98872.31
2022-08-25T17:07:06.435Z,98869.31
2022-08-25T17:11:15.868Z,98865.88
2022-08-25T17:15:22.436Z,98863.38
2022-08-25T17:19:25.838Z,98864.13
2022-08-25T17:23:34.180Z,98865.16
2022-08-25T17:27:35.874Z,98862.47
2022-08-25T17:31:39.757Z,98861.91
2022-08-25T17:35:45.348Z,98857.91
2022-08-25T17:39:47.602Z,98857.03
2022-08-25T17:43:52.124Z,98866.22
2022-08-25T17:48:00.300Z,98864.88
2022-08-25T17:52:02.430Z,98868.28
2022-08-25T17:56:15.436Z,98867.41
2022-08-25T18:00:19.178Z,98866.25
2022-08-25T18:04:22.587Z,98866.84
2022-08-25T18:08:35.003Z,98869.09
2022-08-25T18:12:38.415Z,98872.06
2022-08-25T18:16:40.876Z,98877.22
2022-08-25T18:20:52.252Z,98875.16
2022-08-25T18:24:54.810Z,98874.63
2022-08-25T18:28:59.705Z,98881.25
2022-08-25T18:33:01.210Z,98880.84
2022-08-25T18:37:23.546Z,98873.88
2022-08-25T18:41:27.129Z,98880.09
2022-08-25T18:45:45.258Z,98883.19
2022-08-25T18:49:46.914Z,98892.38
2022-08-25T18:53:49.831Z,98896.97
2022-08-25T18:57:54.790Z,98901.88
2022-08-25T19:01:57.251Z,98897.09
2022-08-25T19:05:58.949Z,98896.75
2022-08-25T19:10:07.377Z,98902.16
2022-08-25T19:14:12.451Z,98911.66
2022-08-25T19:18:15.378Z,98911.94
2022-08-25T19:22:40.639Z,98918.34
2022-08-25T19:26:46.031Z,98921.13
2022-08-25T19:30:50.954Z,98928.91
2022-08-25T19:34:54.771Z,98928.28
2022-08-25T19:39:00.340Z,98925.00
2022-08-25T19:43:02.145Z,98927.38
2022-08-25T19:47:05.228Z,98933.44
2022-08-25T19:51:19.174Z,98934.06
2022-08-25T19:55:21.914Z,98935.41
2022-08-25T19:59:34.364Z,98932.44
2022-08-25T20:03:51.225Z,98941.19
2022-08-25T20:07:56.254Z,98940.16
2022-08-25T20:11:58.242Z,98952.13
2022-08-25T20:16:00.240Z,98944.66
2022-08-25T20:20:04.640Z,98945.19
2022-08-25T20:24:32.299Z,98952.88
2022-08-25T20:28:33.833Z,98945.63
2022-08-25T20:32:35.992Z,98950.63
2022-08-25T20:36:39.971Z,98950.44
2022-08-25T20:40:51.701Z,98950.94
2022-08-25T20:44:53.602Z,98949.00
2022-08-25T20:48:55.176Z,98947.97
2022-08-25T20:52:58.962Z,98949.06
2022-08-25T20:57:09.389Z,98949.38
2022-08-25T21:01:18.604Z,98950.47
2022-08-25T21:05:25.093Z,98962.41
2022-08-25T21:09:28.014Z,98962.88
2022-08-25T21:13:29.501Z,98957.94
2022-08-25T21:17:33.779Z,98969.91
2022-08-25T21:21:44.307Z,98963.09
2022-08-25T21:25:45.846Z,98962.56
2022-08-25T21:29:54.716Z,98970.69
2022-08-25T21:34:04.369Z,98965.16
2022-08-25T21:38:06.865Z,98966.59
2022-08-25T21:42:08.432Z,98968.69
2022-08-25T21:46:12.363Z,98967.28
2022-08-25T21:50:21.309Z,98964.88
2022-08-25T21:54:24.066Z,98974.03
2022-08-25T21:58:25.885Z,98975.19
2022-08-25T22:02:27.334Z,98970.53
2022-08-25T22:06:29.909Z,98970.91
2022-08-25T22:10:32.371Z,98980.75
2022-08-25T22:14:41.360Z,98977.47
2022-08-25T22:18:43.726Z,98967.16
2022-08-25T22:22:45.318Z,98969.22
2022-08-25T22:26:49.078Z,98969.47
2022-08-25T22:30:50.905Z,98969.03
2022-08-25T22:34:52.382Z,98970.31
2022-08-25T22:39:01.327Z,98962.81
2022-08-25T22:43:04.188Z,98967.06
2022-08-25T22:47:09.235Z,98973.72
2022-08-25T22:51:17.165Z,98972.03
2022-08-25T22:55:19.245Z,98971.31
2022-08-25T22:59:23.578Z,98970.47
2022-08-25T23:03:27.250Z,98972.28
2022-08-25T23:07:35.334Z,98970.72
2022-08-25T23:11:45.327Z,98975.47
2022-08-25T23:15:47.609Z,98974.78
2022-08-25T23:19:49.195Z,98973.25
2022-08-25T23:23:50.819Z,98974.47
2022-08-25T23:27:59.485Z,98974.66
2022-08-25T23:36:21.863Z,98976.72
2022-08-25T23:40:24.052Z,98970.09
2022-08-25T23:44:32.573Z,98967.28
2022-08-25T23:48:34.433Z,98972.97
2022-08-25T23:52:36.407Z,98967.00
2022-08-25T23:56:42.249Z,98960.97
